Caroga Lake, New York
Current Conditions -  °F | °C
As of 11:55 AM on Tuesday 27 Jan 2015 (Local Time) from KNY0 Reporting Station
Overcast Overcast  
Wind Chill:   Ceiling: 4800
Heat Index: 14°   Visibility: 10mi
Dew Point:   Wind: 8mph
Humidity: 59%   Direction: 230°SW
Pressure: 29.76"   Gusts: NA
Location:  43.14°N, 74.48°W
Report Text: KNY0 271655Z AUTO 23007KT 10SM SCT036 OVC048 M10/M16 A2976 RMK AO2 T10981164
Loading
Personal Weather Stations






























Interactive Weather Map New forecast layout! Learn more

10-Day Weather Forecast

Advertisements
Track Severe Weather on mobile